createdAt,value
2022-12-01T00:01:10.478Z,102980.00
2022-12-01T00:03:37.726Z,102980.44
2022-12-01T00:06:11.703Z,102972.66
2022-12-01T00:08:38.968Z,102972.66
2022-12-01T00:11:12.263Z,102969.06
2022-12-01T00:13:40.097Z,102972.28
2022-12-01T00:16:16.017Z,102973.88
2022-12-01T00:18:43.642Z,102971.91
2022-12-01T00:21:15.667Z,102965.94
2022-12-01T00:23:52.408Z,102968.31
2022-12-01T00:26:20.607Z,102969.94
2022-12-01T00:28:58.283Z,102971.34
2022-12-01T00:31:25.544Z,102970.53
2022-12-01T00:33:53.086Z,102970.72
2022-12-01T00:36:20.006Z,102974.94
2022-12-01T00:38:47.138Z,102971.50
2022-12-01T00:41:14.187Z,102976.09
2022-12-01T00:43:41.378Z,102970.72
2022-12-01T00:46:08.842Z,102967.94
2022-12-01T00:48:35.847Z,102969.53
2022-12-01T00:51:03.301Z,102963.38
2022-12-01T00:53:30.754Z,102957.19
2022-12-01T00:55:57.641Z,102964.19
2022-12-01T00:58:25.112Z,102971.94
2022-12-01T01:00:59.246Z,102971.75
2022-12-01T01:03:30.206Z,102966.75
2022-12-01T01:05:57.457Z,102971.75
2022-12-01T01:08:24.278Z,102973.56
2022-12-01T01:10:51.068Z,102978.34
2022-12-01T01:13:18.292Z,102984.31
2022-12-01T01:15:45.263Z,102984.31
2022-12-01T01:18:12.833Z,102993.50
2022-12-01T01:20:39.787Z,102988.31
2022-12-01T01:23:06.707Z,102988.09
2022-12-01T01:25:33.873Z,102994.09
2022-12-01T01:28:00.713Z,102989.72
2022-12-01T01:30:27.669Z,102984.53
2022-12-01T01:32:54.512Z,102986.13
2022-12-01T01:35:21.533Z,102982.75
2022-12-01T01:37:50.262Z,102995.50
2022-12-01T01:40:17.628Z,102993.53
2022-12-01T01:42:44.460Z,102990.75
2022-12-01T01:45:19.985Z,102984.78
2022-12-01T01:47:47.855Z,102988.34
2022-12-01T01:50:18.638Z,102996.72
2022-12-01T01:52:54.046Z,102992.56
2022-12-01T01:55:21.121Z,102990.75
2022-12-01T01:57:47.967Z,102997.50
2022-12-01T02:00:19.183Z,102993.16
2022-12-01T02:02:47.784Z,102998.34
2022-12-01T02:05:24.053Z,102997.50
2022-12-01T02:07:53.657Z,102992.75
2022-12-01T02:10:24.814Z,102994.38
2022-12-01T02:13:00.888Z,102995.97
2022-12-01T02:16:07.112Z,102987.59
2022-12-01T02:18:56.472Z,102985.59
2022-12-01T02:21:54.738Z,102985.59
2022-12-01T02:24:45.562Z,102982.41
2022-12-01T02:27:53.474Z,102978.63
2022-12-01T02:30:30.305Z,102975.06
2022-12-01T02:32:57.131Z,102977.84
2022-12-01T02:35:48.029Z,102989.19
2022-12-01T02:38:25.632Z,102981.44
2022-12-01T02:41:35.583Z,102979.63
2022-12-01T02:44:14.454Z,102976.25
2022-12-01T02:46:53.416Z,102978.84
2022-12-01T02:49:26.625Z,102987.59
2022-12-01T02:51:56.235Z,102981.44
2022-12-01T02:54:25.698Z,102988.59
2022-12-01T02:56:53.949Z,102985.00
2022-12-01T02:59:20.867Z,102995.97
2022-12-01T03:02:15.000Z,102994.38
2022-12-01T03:04:44.772Z,102995.34
2022-12-01T03:07:36.423Z,102989.19
2022-12-01T03:10:18.040Z,102990.00
2022-12-01T03:12:58.254Z,102991.78
2022-12-01T03:15:53.503Z,102992.75
2022-12-01T03:18:28.947Z,102995.97
2022-12-01T03:21:08.497Z,102992.75
2022-12-01T03:23:41.162Z,102983.59
2022-12-01T03:26:12.111Z,102983.00
2022-12-01T03:28:45.837Z,102990.00
2022-12-01T03:31:20.218Z,102987.59
2022-12-01T03:33:52.737Z,102984.03
2022-12-01T03:36:27.863Z,102991.78
2022-12-01T03:39:05.175Z,102989.81
2022-12-01T03:41:38.147Z,102986.41
2022-12-01T03:44:11.484Z,102985.59
2022-12-01T03:46:47.473Z,102984.03
2022-12-01T03:49:17.283Z,102993.56
2022-12-01T03:51:56.321Z,102996.97
2022-12-01T03:55:04.710Z,102998.72
2022-12-01T03:57:38.731Z,102992.75
2022-12-01T04:00:07.086Z,102979.03
2022-12-01T04:02:34.260Z,102986.38
2022-12-01T04:05:01.160Z,102982.38
2022-12-01T04:07:28.003Z,102992.72
2022-12-01T04:09:54.998Z,102990.16
2022-12-01T04:12:30.952Z,102992.91
2022-12-01T04:14:59.014Z,102977.56
2022-12-01T04:17:26.767Z,102983.94
2022-12-01T04:19:54.163Z,102991.09
2022-12-01T04:22:21.247Z,102993.69
2022-12-01T04:24:48.102Z,102997.25
2022-12-01T04:27:15.272Z,102986.28
2022-12-01T04:29:42.099Z,102992.88
2022-12-01T04:32:09.218Z,102999.84
2022-12-01T04:34:36.099Z,102998.06
2022-12-01T04:37:03.826Z,103000.84
2022-12-01T04:39:30.580Z,102998.25
2022-12-01T04:41:57.551Z,103007.41
2022-12-01T04:44:24.403Z,103001.44
2022-12-01T04:46:53.075Z,102991.09
2022-12-01T04:49:21.729Z,102993.06
2022-12-01T04:51:49.348Z,102996.63
2022-12-01T04:54:17.059Z,102998.25
2022-12-01T04:56:43.932Z,102992.47
2022-12-01T04:59:11.321Z,102999.84
2022-12-01T05:01:38.577Z,102997.06
2022-12-01T05:04:05.461Z,102992.06
2022-12-01T05:06:32.527Z,102990.31
2022-12-01T05:09:01.946Z,102989.47
2022-12-01T05:11:30.775Z,103000.66
2022-12-01T05:13:58.137Z,102996.84
2022-12-01T05:16:29.032Z,102998.81
2022-12-01T05:19:24.593Z,102992.22
2022-12-01T05:21:51.852Z,103005.56
2022-12-01T05:24:20.427Z,102994.59
2022-12-01T05:26:47.664Z,103002.28
2022-12-01T05:29:14.940Z,103006.06
2022-12-01T05:31:41.816Z,103001.28
2022-12-01T05:34:09.053Z,103017.78
2022-12-01T05:36:36.692Z,103018.34
2022-12-01T05:39:05.031Z,103017.56
2022-12-01T05:41:32.145Z,103015.94
2022-12-01T05:43:59.048Z,103015.94
2022-12-01T05:46:26.030Z,103016.56
2022-12-01T05:48:52.992Z,103008.44
2022-12-01T05:51:19.911Z,103008.44
2022-12-01T05:53:46.978Z,103013.00
2022-12-01T05:56:13.923Z,103008.44
2022-12-01T05:58:40.849Z,103010.81
2022-12-01T06:01:07.806Z,103016.81
2022-12-01T06:03:34.651Z,103007.44
2022-12-01T06:06:01.813Z,103009.59
2022-12-01T06:08:28.611Z,103002.38
2022-12-01T06:10:55.428Z,102996.00
2022-12-01T06:13:22.251Z,102994.94
2022-12-01T06:15:59.387Z,102999.06
2022-12-01T06:18:27.578Z,103004.19
2022-12-01T06:20:54.495Z,103011.34
2022-12-01T06:23:21.294Z,103013.88
2022-12-01T06:25:49.187Z,103014.63
2022-12-01T06:28:17.081Z,103012.34
2022-12-01T06:30:44.024Z,103020.66
2022-12-01T06:33:11.072Z,103012.03
2022-12-01T06:35:38.104Z,103021.38
2022-12-01T06:38:05.332Z,103017.91
2022-12-01T06:40:32.523Z,103017.31
2022-12-01T06:43:04.055Z,103016.06
2022-12-01T06:45:31.853Z,103024.16
2022-12-01T06:47:58.890Z,103022.13
2022-12-01T06:50:29.505Z,103022.31
2022-12-01T06:52:59.019Z,103022.06
2022-12-01T06:55:26.239Z,103016.47
2022-12-01T06:57:53.405Z,103029.38
2022-12-01T07:00:20.596Z,103030.91
2022-12-01T07:02:47.603Z,103029.31
2022-12-01T07:05:14.601Z,103040.38
2022-12-01T07:07:41.710Z,103040.88
2022-12-01T07:10:10.707Z,103037.50
2022-12-01T07:12:38.218Z,103035.09
2022-12-01T07:15:08.971Z,103042.06
2022-12-01T07:17:36.858Z,103041.44
2022-12-01T07:20:04.320Z,103046.94
2022-12-01T07:22:33.006Z,103048.91
2022-12-01T07:25:00.118Z,103050.06
2022-12-01T07:27:30.369Z,103059.78
2022-12-01T07:29:57.299Z,103065.09
2022-12-01T07:32:24.234Z,103066.72
2022-12-01T07:34:51.268Z,103075.63
2022-12-01T07:37:18.154Z,103064.84
2022-12-01T07:39:45.121Z,103073.22
2022-12-01T07:42:12.041Z,103070.00
2022-12-01T07:44:39.033Z,103070.00
2022-12-01T07:47:05.961Z,103077.59
2022-12-01T07:49:34.444Z,103077.38
2022-12-01T07:52:01.330Z,103080.59
2022-12-01T07:54:28.284Z,103083.81
2022-12-01T07:56:55.365Z,103077.50
2022-12-01T07:59:22.255Z,103079.53
2022-12-01T08:01:49.148Z,103080.63
2022-12-01T08:04:16.037Z,103083.28
2022-12-01T08:06:42.976Z,103091.31
2022-12-01T08:09:09.839Z,103089.97
2022-12-01T08:11:36.795Z,103086.66
2022-12-01T08:14:03.826Z,103089.50
2022-12-01T08:16:31.663Z,103091.34
2022-12-01T08:18:58.637Z,103093.59
2022-12-01T08:21:25.688Z,103099.00
2022-12-01T08:23:57.418Z,103094.09
2022-12-01T08:26:25.605Z,103102.94
2022-12-01T08:28:52.538Z,103095.00
2022-12-01T08:31:21.243Z,103099.78
2022-12-01T08:33:49.393Z,103095.06
2022-12-01T08:36:17.641Z,103106.47
2022-12-01T08:38:45.953Z,103114.47
2022-12-01T08:41:13.851Z,103110.53
2022-12-01T08:43:57.946Z,103113.56
2022-12-01T08:46:33.289Z,103113.59
2022-12-01T08:49:01.137Z,103105.50
2022-12-01T08:51:28.834Z,103116.09
2022-12-01T08:53:57.629Z,103109.56
2022-12-01T08:56:26.232Z,103115.59
2022-12-01T08:58:54.476Z,103109.06
2022-12-01T09:01:22.009Z,103117.28
2022-12-01T09:03:49.338Z,103112.53
2022-12-01T09:06:20.456Z,103116.34
2022-12-01T09:08:48.285Z,103109.81
2022-12-01T09:11:18.958Z,103111.84
2022-12-01T09:13:52.983Z,103104.50
2022-12-01T09:16:22.099Z,103106.72
2022-12-01T09:18:49.328Z,103113.72
2022-12-01T09:21:19.130Z,103109.97
2022-12-01T09:23:47.012Z,103106.97
2022-12-01T09:26:18.697Z,103108.38
2022-12-01T09:28:47.168Z,103108.19
2022-12-01T09:31:15.421Z,103120.13
2022-12-01T09:33:42.858Z,103111.38
2022-12-01T09:36:10.830Z,103108.53
2022-12-01T09:38:39.243Z,103108.53
2022-12-01T09:41:19.399Z,103106.56
2022-12-01T09:43:53.964Z,103110.59
2022-12-01T09:46:26.438Z,103106.22
2022-12-01T09:48:57.491Z,103108.22
2022-12-01T09:51:28.736Z,103097.88
2022-12-01T09:53:59.286Z,103098.31
2022-12-01T09:56:32.532Z,103087.75
2022-12-01T09:59:08.309Z,103084.16
2022-12-01T10:01:38.654Z,103087.59
2022-12-01T10:04:14.949Z,103070.06
2022-12-01T10:06:55.163Z,103066.47
2022-12-01T10:09:32.854Z,103077.09
2022-12-01T10:12:09.280Z,103078.66
2022-12-01T10:14:37.660Z,103074.09
2022-12-01T10:17:15.538Z,103076.94
2022-12-01T10:19:51.335Z,103076.78
2022-12-01T10:22:59.916Z,103078.81
2022-12-01T10:25:28.951Z,103082.84
2022-12-01T10:28:12.666Z,103080.28
2022-12-01T10:30:50.384Z,103073.16
2022-12-01T10:33:34.319Z,103081.81
2022-12-01T10:36:01.507Z,103080.03
2022-12-01T10:38:31.858Z,103087.44
2022-12-01T10:41:01.171Z,103085.84
2022-12-01T10:43:48.617Z,103078.63
2022-12-01T10:46:30.440Z,103078.44
2022-12-01T10:48:59.704Z,103084.06
2022-12-01T10:51:28.038Z,103089.22
2022-12-01T10:54:11.565Z,103076.03
2022-12-01T10:56:41.191Z,103083.25
2022-12-01T10:59:25.697Z,103073.50
2022-12-01T11:01:53.732Z,103079.06
2022-12-01T11:04:46.460Z,103077.06
2022-12-01T11:07:25.921Z,103069.69
2022-12-01T11:10:18.751Z,103068.50
2022-12-01T11:12:53.787Z,103066.50
2022-12-01T11:15:25.031Z,103065.53
2022-12-01T11:18:04.451Z,103065.34
2022-12-01T11:20:38.417Z,103062.75
2022-12-01T11:23:26.940Z,103063.75
2022-12-01T11:25:56.744Z,103063.75
2022-12-01T11:28:24.195Z,103060.38
2022-12-01T11:31:09.216Z,103061.75
2022-12-01T11:33:52.378Z,103054.97
2022-12-01T11:36:43.539Z,103042.59
2022-12-01T11:39:24.784Z,103043.59
2022-12-01T11:41:57.178Z,103039.00
2022-12-01T11:47:25.004Z,103035.63
2022-12-01T11:49:56.756Z,103031.44
2022-12-01T11:52:30.806Z,103035.44
2022-12-01T11:55:11.414Z,103025.09
2022-12-01T11:57:42.869Z,103029.47
2022-12-01T12:00:17.700Z,103030.66
2022-12-01T12:03:16.383Z,103027.06
2022-12-01T12:09:28.258Z,103019.59
2022-12-01T12:12:14.666Z,103018.56
2022-12-01T12:15:01.399Z,103016.78
2022-12-01T12:17:44.401Z,103011.75
2022-12-01T12:20:12.055Z,103011.72
2022-12-01T12:23:00.434Z,103011.13
2022-12-01T12:25:53.387Z,103000.94
2022-12-01T12:28:23.073Z,103011.34
2022-12-01T12:30:56.751Z,103005.34
2022-12-01T12:33:39.545Z,103007.16
2022-12-01T12:36:24.871Z,103010.22
2022-12-01T12:39:06.640Z,103009.81
2022-12-01T12:41:52.496Z,103011.66
2022-12-01T12:44:36.820Z,103011.25
2022-12-01T12:47:41.956Z,103001.09
2022-12-01T12:50:32.326Z,103007.09
2022-12-01T12:53:10.066Z,102999.31
2022-12-01T12:55:43.396Z,102997.88
2022-12-01T12:58:39.048Z,102995.28
2022-12-01T13:01:16.014Z,102991.88
2022-12-01T13:03:51.764Z,102992.66
2022-12-01T13:06:25.708Z,102984.63
2022-12-01T13:09:03.768Z,102979.25
2022-12-01T13:11:55.555Z,102988.41
2022-12-01T13:14:30.926Z,102988.47
2022-12-01T13:17:09.214Z,102986.31
2022-12-01T13:19:39.811Z,102988.31
2022-12-01T13:22:09.905Z,102987.13
2022-12-01T13:24:36.983Z,102980.94
2022-12-01T13:27:13.296Z,102979.94
2022-12-01T13:29:46.898Z,102980.34
2022-12-01T13:32:29.388Z,102985.13
2022-12-01T13:34:57.265Z,102986.53
2022-12-01T13:37:33.160Z,102977.94
2022-12-01T13:40:30.517Z,102982.94
2022-12-01T13:43:10.480Z,102975.94
2022-12-01T13:45:40.701Z,102980.13
2022-12-01T13:48:47.022Z,102979.53
2022-12-01T13:51:14.056Z,102968.97
2022-12-01T13:53:57.644Z,102971.94
2022-12-01T13:56:45.976Z,102965.56
2022-12-01T13:59:41.807Z,102976.34
2022-12-01T14:02:20.945Z,102962.38
2022-12-01T14:04:48.099Z,102967.94
2022-12-01T14:07:35.618Z,102956.00
2022-12-01T14:10:21.144Z,102959.97
2022-12-01T14:12:49.504Z,102960.97
2022-12-01T14:15:31.979Z,102952.78
2022-12-01T14:18:02.819Z,102945.22
2022-12-01T14:20:34.205Z,102946.41
2022-12-01T14:23:30.748Z,102951.81
2022-12-01T14:26:44.915Z,102952.00
2022-12-01T14:29:43.596Z,102955.97
2022-12-01T14:32:10.419Z,102954.97
2022-12-01T14:34:38.669Z,102955.38
2022-12-01T14:37:16.618Z,102958.16
2022-12-01T14:39:59.045Z,102959.56
2022-12-01T14:42:58.579Z,102946.00
2022-12-01T14:45:35.671Z,102954.56
2022-12-01T14:48:05.777Z,102960.13
2022-12-01T14:50:46.352Z,102968.06
2022-12-01T14:53:16.826Z,102965.91
2022-12-01T14:55:53.637Z,102962.28
2022-12-01T14:58:29.083Z,102961.25
2022-12-01T15:01:02.395Z,102962.28
2022-12-01T15:03:36.606Z,102961.06
2022-12-01T15:06:03.973Z,102963.25
2022-12-01T15:08:41.880Z,102963.63
2022-12-01T15:11:25.793Z,102964.19
2022-12-01T15:13:57.714Z,102967.38
2022-12-01T15:16:32.568Z,102966.78
2022-12-01T15:18:59.563Z,102960.56
2022-12-01T15:21:31.447Z,102951.78
2022-12-01T15:24:06.170Z,102950.56
2022-12-01T15:26:45.955Z,102955.53
2022-12-01T15:29:19.453Z,102951.72
2022-12-01T15:32:01.009Z,102957.66
2022-12-01T15:34:31.076Z,102964.19
2022-12-01T15:37:06.470Z,102957.19
2022-12-01T15:39:37.358Z,102965.72
2022-12-01T15:42:05.156Z,102963.09
2022-12-01T15:44:35.301Z,102968.84
2022-12-01T15:47:36.063Z,102978.16
2022-12-01T15:50:05.600Z,102969.38
2022-12-01T15:52:42.699Z,102985.47
2022-12-01T15:55:25.021Z,102976.66
2022-12-01T15:57:52.375Z,102984.38
2022-12-01T16:00:23.325Z,102987.50
2022-12-01T16:02:53.679Z,102992.44
2022-12-01T16:05:27.751Z,102987.03
2022-12-01T16:10:42.763Z,102988.47
2022-12-01T16:13:47.263Z,102990.00
2022-12-01T16:16:44.126Z,102990.72
2022-12-01T16:19:11.032Z,102991.47
2022-12-01T16:22:00.476Z,102983.44
2022-12-01T16:24:32.633Z,102984.56
2022-12-01T16:27:07.011Z,102987.69
2022-12-01T16:29:57.868Z,102984.84
2022-12-01T16:32:38.570Z,102988.78
2022-12-01T16:35:26.696Z,102989.94
2022-12-01T16:37:55.143Z,102991.53
2022-12-01T16:40:22.913Z,102990.75
2022-12-01T16:42:50.415Z,102993.31
2022-12-01T16:45:19.113Z,102992.69
2022-12-01T16:47:48.260Z,102980.50
2022-12-01T16:50:20.994Z,102982.47
2022-12-01T16:52:48.338Z,102988.59
2022-12-01T16:55:39.966Z,102977.66
2022-12-01T16:58:07.228Z,102979.00
2022-12-01T17:00:35.429Z,102983.72
2022-12-01T17:03:02.425Z,102978.94
2022-12-01T17:05:29.671Z,102976.53
2022-12-01T17:07:57.159Z,102972.88
2022-12-01T17:10:24.591Z,102975.84
2022-12-01T17:12:52.258Z,102976.00
2022-12-01T17:15:19.436Z,102975.56
2022-12-01T17:17:46.493Z,102981.88
2022-12-01T17:20:13.852Z,102974.47
2022-12-01T17:22:40.697Z,102974.31
2022-12-01T17:25:09.853Z,102983.66
2022-12-01T17:27:38.375Z,102979.47
2022-12-01T17:30:06.910Z,102979.22
2022-12-01T17:32:34.238Z,102975.56
2022-12-01T17:35:01.356Z,102974.16
2022-12-01T17:37:28.602Z,102978.69
2022-12-01T17:39:55.703Z,102977.25
2022-12-01T17:42:22.902Z,102974.88
2022-12-01T17:44:50.272Z,102971.66
2022-12-01T17:47:17.673Z,102972.00
2022-12-01T17:49:44.713Z,102968.00
2022-12-01T17:52:12.110Z,102971.72
2022-12-01T17:54:39.381Z,102964.34
2022-12-01T17:57:07.610Z,102976.88
2022-12-01T17:59:37.009Z,102972.34
2022-12-01T18:02:05.189Z,102970.75
2022-12-01T18:04:32.691Z,102962.56
2022-12-01T18:07:00.801Z,102974.03
2022-12-01T18:09:27.850Z,102972.78
2022-12-01T18:11:59.109Z,102970.22
2022-12-01T18:14:26.612Z,102969.06
2022-12-01T18:16:54.166Z,102969.06
2022-12-01T18:19:21.772Z,102964.06
2022-12-01T18:21:50.418Z,102960.69
2022-12-01T18:24:17.508Z,102969.59
2022-12-01T18:26:44.756Z,102961.06
2022-12-01T18:29:18.728Z,102956.88
2022-12-01T18:31:46.323Z,102964.97
2022-12-01T18:34:13.332Z,102967.34
2022-12-01T18:36:41.415Z,102965.41
2022-12-01T18:39:09.718Z,102973.34
2022-12-01T18:41:37.220Z,102966.72
2022-12-01T18:44:05.052Z,102967.88
2022-12-01T18:46:32.117Z,102974.84
2022-12-01T18:49:03.250Z,102975.63
2022-12-01T18:51:31.653Z,102978.38
2022-12-01T18:54:00.351Z,102967.44
2022-12-01T18:56:28.300Z,102972.41
2022-12-01T18:59:00.582Z,102980.94
2022-12-01T19:01:32.339Z,102976.78
2022-12-01T19:04:00.296Z,102975.78
2022-12-01T19:06:29.002Z,102980.00
2022-12-01T19:08:56.603Z,102979.63
2022-12-01T19:11:23.697Z,102980.88
2022-12-01T19:13:50.739Z,102973.41
2022-12-01T19:16:20.236Z,102976.25
2022-12-01T19:18:47.250Z,102982.66
2022-12-01T19:21:16.614Z,102972.78
2022-12-01T19:23:44.097Z,102973.88
2022-12-01T19:26:18.520Z,102968.38
2022-12-01T19:28:45.970Z,102974.78
2022-12-01T19:31:16.536Z,102973.44
2022-12-01T19:33:46.650Z,102968.06
2022-12-01T19:36:19.645Z,102976.28
2022-12-01T19:38:47.183Z,102969.94
2022-12-01T19:41:15.301Z,102973.78
2022-12-01T19:43:42.901Z,102967.47
2022-12-01T19:46:13.769Z,102969.66
2022-12-01T19:48:41.284Z,102968.53
2022-12-01T19:51:16.691Z,102968.94
2022-12-01T19:53:43.696Z,102967.81
2022-12-01T19:56:10.799Z,102966.66
2022-12-01T19:58:37.899Z,102975.00
2022-12-01T20:01:11.018Z,102976.59
2022-12-01T20:03:39.290Z,102968.50
2022-12-01T20:06:19.010Z,102974.28
2022-12-01T20:08:46.593Z,102979.91
2022-12-01T20:11:14.560Z,102977.94
2022-12-01T20:13:44.094Z,102970.00
2022-12-01T20:16:16.721Z,102974.81
2022-12-01T20:18:44.478Z,102966.25
2022-12-01T20:21:16.648Z,102971.25
2022-12-01T20:23:44.914Z,102972.03
2022-12-01T20:26:12.684Z,102976.03
2022-12-01T20:28:40.457Z,102964.13
2022-12-01T20:31:14.093Z,102963.91
2022-12-01T20:33:41.885Z,102965.53
2022-12-01T20:36:10.132Z,102975.69
2022-12-01T20:38:38.868Z,102972.09
2022-12-01T20:41:06.234Z,102974.34
2022-12-01T20:43:34.242Z,102976.91
2022-12-01T20:46:02.190Z,102978.50
2022-12-01T20:48:29.620Z,102980.91
2022-12-01T20:50:56.661Z,102978.16
2022-12-01T20:53:23.606Z,102976.53
2022-12-01T20:55:50.611Z,102967.66
2022-12-01T20:58:17.645Z,102966.28
2022-12-01T21:00:44.620Z,102961.91
2022-12-01T21:03:12.925Z,102961.75
2022-12-01T21:05:42.140Z,102958.34
2022-12-01T21:08:12.083Z,102954.78
2022-12-01T21:10:45.086Z,102965.75
2022-12-01T21:13:42.318Z,102958.00
2022-12-01T21:16:28.234Z,102961.53
2022-12-01T21:19:06.692Z,102958.00
2022-12-01T21:21:40.558Z,102952.81
2022-12-01T21:24:17.203Z,102948.28
2022-12-01T21:26:59.260Z,102957.59
2022-12-01T21:29:29.157Z,102942.91
2022-12-01T21:32:00.680Z,102941.75
2022-12-01T21:34:29.460Z,102934.97
2022-12-01T21:37:00.359Z,102933.19
2022-12-01T21:39:29.861Z,102935.78
2022-12-01T21:42:00.269Z,102933.00
2022-12-01T21:44:38.047Z,102934.44
2022-12-01T21:47:22.122Z,102925.06
2022-12-01T21:49:54.703Z,102928.66
2022-12-01T21:52:30.478Z,102933.59
2022-12-01T21:55:23.748Z,102931.03
2022-12-01T21:57:52.866Z,102931.03
2022-12-01T22:00:31.996Z,102926.69
2022-12-01T22:03:17.265Z,102927.47
2022-12-01T22:06:13.487Z,102926.28
2022-12-01T22:08:40.330Z,102924.16
2022-12-01T22:11:19.999Z,102923.97
2022-12-01T22:14:16.330Z,102927.97
2022-12-01T22:16:45.912Z,102924.41
2022-12-01T22:19:15.681Z,102926.16
2022-12-01T22:21:50.419Z,102924.19
2022-12-01T22:24:37.995Z,102915.81
2022-12-01T22:27:32.960Z,102913.69
2022-12-01T22:30:08.006Z,102915.28
2022-12-01T22:32:37.534Z,102913.31
2022-12-01T22:35:31.143Z,102912.94
2022-12-01T22:38:32.153Z,102906.78
2022-12-01T22:41:05.435Z,102902.97
2022-12-01T22:43:50.551Z,102909.16
2022-12-01T22:46:26.977Z,102910.78
2022-12-01T22:48:58.776Z,102906.41
2022-12-01T22:52:05.818Z,102902.22
2022-12-01T22:54:44.886Z,102902.84
2022-12-01T22:57:27.096Z,102911.56
2022-12-01T22:59:55.416Z,102909.78
2022-12-01T23:02:27.878Z,102911.56
2022-12-01T23:05:01.609Z,102912.34
2022-12-01T23:07:37.096Z,102905.59
2022-12-01T23:10:14.798Z,102913.19
2022-12-01T23:12:42.810Z,102899.44
2022-12-01T23:15:29.520Z,102900.25
2022-12-01T23:17:58.926Z,102901.84
2022-12-01T23:20:35.951Z,102891.69
2022-12-01T23:23:15.175Z,102894.09
2022-12-01T23:25:43.395Z,102896.66
2022-12-01T23:28:11.633Z,102889.09
2022-12-01T23:30:42.612Z,102895.09
2022-12-01T23:33:09.584Z,102889.69
2022-12-01T23:35:59.445Z,102894.69
2022-12-01T23:38:31.259Z,102890.53
2022-12-01T23:41:01.223Z,102895.09
2022-12-01T23:43:33.548Z,102883.13
2022-12-01T23:46:12.642Z,102883.13
2022-12-01T23:48:48.378Z,102880.38
2022-12-01T23:51:18.329Z,102878.75
2022-12-01T23:53:46.455Z,102880.53
2022-12-01T23:56:19.191Z,102887.31
2022-12-01T23:58:46.435Z,102880.53
